<?xml version="1.0" encoding="UTF-8" standalone="no" ?>
<gpx xmlns="http://www.topografix.com/GPX/1/1" xmlns:xsi="http://www.w3.org/2001/XMLSchema-instance" xsi:schemaLocation="http://www.topografix.com/GPX/1/1 http://www.topografix.com/GPX/1/1/gpx.xsd" version="1.1" creator="VisuGPX - https://www.visugpx.com">
  <metadata>
    <name>Balade Gistoux_Longueville_Bonlez_Gistoux</name>
    <desc><![CDATA[Magnifique balade avec une grande partie dans les bois. 
Ce tracé est inspiré des randonnées de Papylou. Merci à lui.]]></desc>
  </metadata>
  <trk>
    <name><![CDATA[Maps3D 2020-10-31 02-36pm]]></name>
    <trkseg>
      <trkpt lat="50.68704" lon="4.70054">
        <ele>95.781372</ele>
        <time>2020-10-31T10:04:43Z</time>
      </trkpt>
      <trkpt lat="50.68736" lon="4.70068">
        <ele>99.958496</ele>
        <time>2020-10-31T10:05:13Z</time>
      </trkpt>
      <trkpt lat="50.68768" lon="4.70087">
        <ele>102.729027</ele>
        <time>2020-10-31T10:05:44Z</time>
      </trkpt>
      <trkpt lat="50.68806" lon="4.70107">
        <ele>104.378967</ele>
        <time>2020-10-31T10:06:14Z</time>
      </trkpt>
      <trkpt lat="50.68844" lon="4.70147">
        <ele>106.257004</ele>
        <time>2020-10-31T10:06:45Z</time>
      </trkpt>
      <trkpt lat="50.6887" lon="4.70155">
        <ele>107.412018</ele>
        <time>2020-10-31T10:07:20Z</time>
      </trkpt>
      <trkpt lat="50.68887" lon="4.70187">
        <ele>109.182556</ele>
        <time>2020-10-31T10:08:45Z</time>
      </trkpt>
      <trkpt lat="50.68902" lon="4.70244">
        <ele>112.649124</ele>
        <time>2020-10-31T10:09:15Z</time>
      </trkpt>
      <trkpt lat="50.6892" lon="4.7029">
        <ele>115.460938</ele>
        <time>2020-10-31T10:09:46Z</time>
      </trkpt>
      <trkpt lat="50.68945" lon="4.70334">
        <ele>117.391312</ele>
        <time>2020-10-31T10:10:17Z</time>
      </trkpt>
      <trkpt lat="50.68966" lon="4.7036">
        <ele>118.210236</ele>
        <time>2020-10-31T10:10:48Z</time>
      </trkpt>
      <trkpt lat="50.68991" lon="4.70377">
        <ele>118.365089</ele>
        <time>2020-10-31T10:11:40Z</time>
      </trkpt>
      <trkpt lat="50.69016" lon="4.70388">
        <ele>119.996994</ele>
        <time>2020-10-31T10:12:32Z</time>
      </trkpt>
      <trkpt lat="50.69038" lon="4.70414">
        <ele>122.627037</ele>
        <time>2020-10-31T10:13:05Z</time>
      </trkpt>
      <trkpt lat="50.69062" lon="4.70437">
        <ele>124.864014</ele>
        <time>2020-10-31T10:13:35Z</time>
      </trkpt>
      <trkpt lat="50.69082" lon="4.70472">
        <ele>126.584335</ele>
        <time>2020-10-31T10:14:06Z</time>
      </trkpt>
      <trkpt lat="50.69099" lon="4.70504">
        <ele>127.870529</ele>
        <time>2020-10-31T10:14:42Z</time>
      </trkpt>
      <trkpt lat="50.69119" lon="4.70547">
        <ele>129.927917</ele>
        <time>2020-10-31T10:15:12Z</time>
      </trkpt>
      <trkpt lat="50.69145" lon="4.70536">
        <ele>130.599365</ele>
        <time>2020-10-31T10:15:47Z</time>
      </trkpt>
      <trkpt lat="50.6917" lon="4.70509">
        <ele>131.254333</ele>
        <time>2020-10-31T10:16:18Z</time>
      </trkpt>
      <trkpt lat="50.69193" lon="4.70544">
        <ele>132.608261</ele>
        <time>2020-10-31T10:16:48Z</time>
      </trkpt>
      <trkpt lat="50.69197" lon="4.70587">
        <ele>133.13501</ele>
        <time>2020-10-31T10:17:31Z</time>
      </trkpt>
      <trkpt lat="50.6921" lon="4.70623">
        <ele>133.76178</ele>
        <time>2020-10-31T10:18:16Z</time>
      </trkpt>
      <trkpt lat="50.69215" lon="4.70681">
        <ele>134.558273</ele>
        <time>2020-10-31T10:18:46Z</time>
      </trkpt>
      <trkpt lat="50.6922" lon="4.70722">
        <ele>136.171173</ele>
        <time>2020-10-31T10:19:38Z</time>
      </trkpt>
      <trkpt lat="50.69228" lon="4.7078">
        <ele>138.719193</ele>
        <time>2020-10-31T10:20:08Z</time>
      </trkpt>
      <trkpt lat="50.69237" lon="4.7082">
        <ele>140.778809</ele>
        <time>2020-10-31T10:20:59Z</time>
      </trkpt>
      <trkpt lat="50.69239" lon="4.70861">
        <ele>141.407394</ele>
        <time>2020-10-31T10:21:37Z</time>
      </trkpt>
      <trkpt lat="50.69244" lon="4.70902">
        <ele>141.624039</ele>
        <time>2020-10-31T10:22:11Z</time>
      </trkpt>
      <trkpt lat="50.6926" lon="4.70945">
        <ele>142.088394</ele>
        <time>2020-10-31T10:22:42Z</time>
      </trkpt>
      <trkpt lat="50.69285" lon="4.70954">
        <ele>143.204514</ele>
        <time>2020-10-31T10:23:36Z</time>
      </trkpt>
      <trkpt lat="50.6932" lon="4.70928">
        <ele>144.613129</ele>
        <time>2020-10-31T10:24:06Z</time>
      </trkpt>
      <trkpt lat="50.69346" lon="4.70928">
        <ele>144.82019</ele>
        <time>2020-10-31T10:24:38Z</time>
      </trkpt>
      <trkpt lat="50.69361" lon="4.70985">
        <ele>145.145874</ele>
        <time>2020-10-31T10:25:09Z</time>
      </trkpt>
      <trkpt lat="50.69372" lon="4.71046">
        <ele>143.99231</ele>
        <time>2020-10-31T10:25:39Z</time>
      </trkpt>
      <trkpt lat="50.69385" lon="4.71102">
        <ele>141.862717</ele>
        <time>2020-10-31T10:26:09Z</time>
      </trkpt>
      <trkpt lat="50.69391" lon="4.71174">
        <ele>138.989777</ele>
        <time>2020-10-31T10:26:40Z</time>
      </trkpt>
      <trkpt lat="50.69402" lon="4.71236">
        <ele>136.963394</ele>
        <time>2020-10-31T10:27:11Z</time>
      </trkpt>
      <trkpt lat="50.69414" lon="4.713">
        <ele>135.445923</ele>
        <time>2020-10-31T10:27:42Z</time>
      </trkpt>
      <trkpt lat="50.69428" lon="4.71336">
        <ele>134.29718</ele>
        <time>2020-10-31T10:28:48Z</time>
      </trkpt>
      <trkpt lat="50.69431" lon="4.71404">
        <ele>133.292847</ele>
        <time>2020-10-31T10:29:18Z</time>
      </trkpt>
      <trkpt lat="50.69447" lon="4.71464">
        <ele>131.611938</ele>
        <time>2020-10-31T10:29:49Z</time>
      </trkpt>
      <trkpt lat="50.6946" lon="4.71524">
        <ele>130.420349</ele>
        <time>2020-10-31T10:30:19Z</time>
      </trkpt>
      <trkpt lat="50.69471" lon="4.71583">
        <ele>129.765137</ele>
        <time>2020-10-31T10:30:50Z</time>
      </trkpt>
      <trkpt lat="50.69452" lon="4.71636">
        <ele>130.283203</ele>
        <time>2020-10-31T10:31:20Z</time>
      </trkpt>
      <trkpt lat="50.69431" lon="4.71692">
        <ele>131.239029</ele>
        <time>2020-10-31T10:31:51Z</time>
      </trkpt>
      <trkpt lat="50.6941" lon="4.71745">
        <ele>132.249939</ele>
        <time>2020-10-31T10:32:22Z</time>
      </trkpt>
      <trkpt lat="50.6939" lon="4.71802">
        <ele>133.372437</ele>
        <time>2020-10-31T10:32:52Z</time>
      </trkpt>
      <trkpt lat="50.69407" lon="4.71769">
        <ele>132.544495</ele>
        <time>2020-10-31T10:33:42Z</time>
      </trkpt>
      <trkpt lat="50.69446" lon="4.71784">
        <ele>131.643341</ele>
        <time>2020-10-31T10:34:13Z</time>
      </trkpt>
      <trkpt lat="50.69481" lon="4.71819">
        <ele>131.771698</ele>
        <time>2020-10-31T10:34:44Z</time>
      </trkpt>
      <trkpt lat="50.69513" lon="4.71852">
        <ele>131.117798</ele>
        <time>2020-10-31T10:35:15Z</time>
      </trkpt>
      <trkpt lat="50.69548" lon="4.71885">
        <ele>129.389908</ele>
        <time>2020-10-31T10:35:45Z</time>
      </trkpt>
      <trkpt lat="50.69585" lon="4.71919">
        <ele>127.952759</ele>
        <time>2020-10-31T10:36:16Z</time>
      </trkpt>
      <trkpt lat="50.69613" lon="4.71955">
        <ele>127.18219</ele>
        <time>2020-10-31T10:36:47Z</time>
      </trkpt>
      <trkpt lat="50.69638" lon="4.71971">
        <ele>126.693726</ele>
        <time>2020-10-31T10:37:42Z</time>
      </trkpt>
      <trkpt lat="50.69672" lon="4.72002">
        <ele>125.831841</ele>
        <time>2020-10-31T10:38:12Z</time>
      </trkpt>
      <trkpt lat="50.6969" lon="4.72031">
        <ele>124.900208</ele>
        <time>2020-10-31T10:39:10Z</time>
      </trkpt>
      <trkpt lat="50.69722" lon="4.72067">
        <ele>124.128105</ele>
        <time>2020-10-31T10:39:40Z</time>
      </trkpt>
      <trkpt lat="50.69739" lon="4.7211">
        <ele>124.186142</ele>
        <time>2020-10-31T10:40:30Z</time>
      </trkpt>
      <trkpt lat="50.69758" lon="4.72172">
        <ele>125.334457</ele>
        <time>2020-10-31T10:41:00Z</time>
      </trkpt>
      <trkpt lat="50.69776" lon="4.7223">
        <ele>125.982864</ele>
        <time>2020-10-31T10:41:31Z</time>
      </trkpt>
      <trkpt lat="50.69801" lon="4.72273">
        <ele>125.770172</ele>
        <time>2020-10-31T10:42:02Z</time>
      </trkpt>
      <trkpt lat="50.69826" lon="4.72313">
        <ele>124.69603</ele>
        <time>2020-10-31T10:42:33Z</time>
      </trkpt>
      <trkpt lat="50.69852" lon="4.72349">
        <ele>122.989822</ele>
        <time>2020-10-31T10:43:03Z</time>
      </trkpt>
      <trkpt lat="50.69878" lon="4.72358">
        <ele>121.082199</ele>
        <time>2020-10-31T10:43:49Z</time>
      </trkpt>
      <trkpt lat="50.69905" lon="4.72374">
        <ele>119.014168</ele>
        <time>2020-10-31T10:44:47Z</time>
      </trkpt>
      <trkpt lat="50.69908" lon="4.72415">
        <ele>118.801399</ele>
        <time>2020-10-31T10:48:06Z</time>
      </trkpt>
      <trkpt lat="50.69915" lon="4.72456">
        <ele>118.698662</ele>
        <time>2020-10-31T10:48:50Z</time>
      </trkpt>
      <trkpt lat="50.69918" lon="4.72497">
        <ele>119.084679</ele>
        <time>2020-10-31T10:49:42Z</time>
      </trkpt>
      <trkpt lat="50.69911" lon="4.72539">
        <ele>120.119087</ele>
        <time>2020-10-31T10:50:15Z</time>
      </trkpt>
      <trkpt lat="50.69903" lon="4.72583">
        <ele>121.48378</ele>
        <time>2020-10-31T10:50:45Z</time>
      </trkpt>
      <trkpt lat="50.69897" lon="4.72624">
        <ele>122.363434</ele>
        <time>2020-10-31T10:51:19Z</time>
      </trkpt>
      <trkpt lat="50.69903" lon="4.72678">
        <ele>122.125298</ele>
        <time>2020-10-31T10:51:49Z</time>
      </trkpt>
      <trkpt lat="50.69907" lon="4.7272">
        <ele>121.693771</ele>
        <time>2020-10-31T10:52:22Z</time>
      </trkpt>
      <trkpt lat="50.6991" lon="4.72762">
        <ele>121.513588</ele>
        <time>2020-10-31T10:53:17Z</time>
      </trkpt>
      <trkpt lat="50.69916" lon="4.72804">
        <ele>121.689377</ele>
        <time>2020-10-31T10:53:55Z</time>
      </trkpt>
      <trkpt lat="50.69926" lon="4.72842">
        <ele>122.316772</ele>
        <time>2020-10-31T10:54:26Z</time>
      </trkpt>
      <trkpt lat="50.6994" lon="4.72877">
        <ele>122.829834</ele>
        <time>2020-10-31T10:56:01Z</time>
      </trkpt>
      <trkpt lat="50.6993" lon="4.72916">
        <ele>122.484314</ele>
        <time>2020-10-31T10:57:15Z</time>
      </trkpt>
      <trkpt lat="50.69928" lon="4.72959">
        <ele>122.833046</ele>
        <time>2020-10-31T10:58:58Z</time>
      </trkpt>
      <trkpt lat="50.69947" lon="4.72995">
        <ele>123.681717</ele>
        <time>2020-10-31T10:59:28Z</time>
      </trkpt>
      <trkpt lat="50.69961" lon="4.73038">
        <ele>125.179626</ele>
        <time>2020-10-31T10:59:59Z</time>
      </trkpt>
      <trkpt lat="50.69971" lon="4.73077">
        <ele>126.468216</ele>
        <time>2020-10-31T11:00:38Z</time>
      </trkpt>
      <trkpt lat="50.6997" lon="4.73118">
        <ele>127.781754</ele>
        <time>2020-10-31T11:01:27Z</time>
      </trkpt>
      <trkpt lat="50.69968" lon="4.73179">
        <ele>129.435013</ele>
        <time>2020-10-31T11:01:58Z</time>
      </trkpt>
      <trkpt lat="50.69963" lon="4.7322">
        <ele>129.724304</ele>
        <time>2020-10-31T11:03:18Z</time>
      </trkpt>
      <trkpt lat="50.69966" lon="4.73271">
        <ele>130.062805</ele>
        <time>2020-10-31T11:03:48Z</time>
      </trkpt>
      <trkpt lat="50.69974" lon="4.73324">
        <ele>130.502197</ele>
        <time>2020-10-31T11:04:19Z</time>
      </trkpt>
      <trkpt lat="50.70004" lon="4.73357">
        <ele>130.128662</ele>
        <time>2020-10-31T11:04:50Z</time>
      </trkpt>
      <trkpt lat="50.70014" lon="4.73415">
        <ele>130.458344</ele>
        <time>2020-10-31T11:05:20Z</time>
      </trkpt>
      <trkpt lat="50.70026" lon="4.73467">
        <ele>130.860321</ele>
        <time>2020-10-31T11:05:50Z</time>
      </trkpt>
      <trkpt lat="50.70041" lon="4.73511">
        <ele>131.393127</ele>
        <time>2020-10-31T11:06:21Z</time>
      </trkpt>
      <trkpt lat="50.70042" lon="4.73553">
        <ele>132.892639</ele>
        <time>2020-10-31T11:06:59Z</time>
      </trkpt>
      <trkpt lat="50.70034" lon="4.73601">
        <ele>135.060791</ele>
        <time>2020-10-31T11:07:29Z</time>
      </trkpt>
      <trkpt lat="50.70037" lon="4.73647">
        <ele>137.165894</ele>
        <time>2020-10-31T11:08:00Z</time>
      </trkpt>
      <trkpt lat="50.70037" lon="4.73689">
        <ele>138.222092</ele>
        <time>2020-10-31T11:08:35Z</time>
      </trkpt>
      <trkpt lat="50.70007" lon="4.73694">
        <ele>138.869812</ele>
        <time>2020-10-31T11:09:06Z</time>
      </trkpt>
      <trkpt lat="50.69995" lon="4.73732">
        <ele>138.88884</ele>
        <time>2020-10-31T11:09:42Z</time>
      </trkpt>
      <trkpt lat="50.69983" lon="4.73791">
        <ele>138.474991</ele>
        <time>2020-10-31T11:10:14Z</time>
      </trkpt>
      <trkpt lat="50.70026" lon="4.73804">
        <ele>139.091827</ele>
        <time>2020-10-31T11:10:45Z</time>
      </trkpt>
      <trkpt lat="50.70061" lon="4.73837">
        <ele>139.737366</ele>
        <time>2020-10-31T11:11:16Z</time>
      </trkpt>
      <trkpt lat="50.70083" lon="4.73871">
        <ele>139.998169</ele>
        <time>2020-10-31T11:11:46Z</time>
      </trkpt>
      <trkpt lat="50.70081" lon="4.73918">
        <ele>139.97406</ele>
        <time>2020-10-31T11:12:16Z</time>
      </trkpt>
      <trkpt lat="50.7007" lon="4.73956">
        <ele>139.833984</ele>
        <time>2020-10-31T11:12:57Z</time>
      </trkpt>
      <trkpt lat="50.70061" lon="4.74012">
        <ele>139.728333</ele>
        <time>2020-10-31T11:13:27Z</time>
      </trkpt>
      <trkpt lat="50.70047" lon="4.7407">
        <ele>139.562134</ele>
        <time>2020-10-31T11:13:58Z</time>
      </trkpt>
      <trkpt lat="50.70073" lon="4.74082">
        <ele>139.879395</ele>
        <time>2020-10-31T11:14:39Z</time>
      </trkpt>
      <trkpt lat="50.70122" lon="4.74092">
        <ele>139.894287</ele>
        <time>2020-10-31T11:15:10Z</time>
      </trkpt>
      <trkpt lat="50.70152" lon="4.74074">
        <ele>140</ele>
        <time>2020-10-31T11:15:41Z</time>
      </trkpt>
      <trkpt lat="50.70185" lon="4.74039">
        <ele>140.101974</ele>
        <time>2020-10-31T11:16:12Z</time>
      </trkpt>
      <trkpt lat="50.70196" lon="4.74001">
        <ele>140.00354</ele>
        <time>2020-10-31T11:16:52Z</time>
      </trkpt>
      <trkpt lat="50.70212" lon="4.73969">
        <ele>139.426239</ele>
        <time>2020-10-31T11:24:38Z</time>
      </trkpt>
      <trkpt lat="50.70224" lon="4.73922">
        <ele>138.412811</ele>
        <time>2020-10-31T11:25:08Z</time>
      </trkpt>
      <trkpt lat="50.70249" lon="4.73909">
        <ele>137.919418</ele>
        <time>2020-10-31T11:25:39Z</time>
      </trkpt>
      <trkpt lat="50.70272" lon="4.7389">
        <ele>137.058472</ele>
        <time>2020-10-31T11:26:09Z</time>
      </trkpt>
      <trkpt lat="50.70281" lon="4.73851">
        <ele>136.171143</ele>
        <time>2020-10-31T11:26:59Z</time>
      </trkpt>
      <trkpt lat="50.70288" lon="4.73789">
        <ele>135.09845</ele>
        <time>2020-10-31T11:27:30Z</time>
      </trkpt>
      <trkpt lat="50.70299" lon="4.7373">
        <ele>133.986694</ele>
        <time>2020-10-31T11:28:01Z</time>
      </trkpt>
      <trkpt lat="50.70306" lon="4.73671">
        <ele>133.039246</ele>
        <time>2020-10-31T11:28:31Z</time>
      </trkpt>
      <trkpt lat="50.70314" lon="4.73615">
        <ele>133.029968</ele>
        <time>2020-10-31T11:29:02Z</time>
      </trkpt>
      <trkpt lat="50.70327" lon="4.73563">
        <ele>133.057419</ele>
        <time>2020-10-31T11:29:32Z</time>
      </trkpt>
      <trkpt lat="50.70337" lon="4.73515">
        <ele>133.047852</ele>
        <time>2020-10-31T11:30:02Z</time>
      </trkpt>
      <trkpt lat="50.7038" lon="4.73513">
        <ele>133.563049</ele>
        <time>2020-10-31T11:30:32Z</time>
      </trkpt>
      <trkpt lat="50.70422" lon="4.73504">
        <ele>134.115723</ele>
        <time>2020-10-31T11:31:03Z</time>
      </trkpt>
      <trkpt lat="50.70461" lon="4.73497">
        <ele>135.067535</ele>
        <time>2020-10-31T11:31:33Z</time>
      </trkpt>
      <trkpt lat="50.70499" lon="4.73494">
        <ele>135.985199</ele>
        <time>2020-10-31T11:32:03Z</time>
      </trkpt>
      <trkpt lat="50.7054" lon="4.73485">
        <ele>135.515869</ele>
        <time>2020-10-31T11:32:34Z</time>
      </trkpt>
      <trkpt lat="50.70567" lon="4.73475">
        <ele>135.201355</ele>
        <time>2020-10-31T11:33:43Z</time>
      </trkpt>
      <trkpt lat="50.70552" lon="4.7351">
        <ele>135.44603</ele>
        <time>2020-10-31T11:34:20Z</time>
      </trkpt>
      <trkpt lat="50.70535" lon="4.73541">
        <ele>135.785477</ele>
        <time>2020-10-31T11:48:39Z</time>
      </trkpt>
      <trkpt lat="50.70548" lon="4.73504">
        <ele>135.451263</ele>
        <time>2020-10-31T11:55:39Z</time>
      </trkpt>
      <trkpt lat="50.70547" lon="4.73463">
        <ele>135.431213</ele>
        <time>2020-10-31T11:56:55Z</time>
      </trkpt>
      <trkpt lat="50.70563" lon="4.73405">
        <ele>135.248108</ele>
        <time>2020-10-31T11:57:25Z</time>
      </trkpt>
      <trkpt lat="50.70577" lon="4.7334">
        <ele>135.078674</ele>
        <time>2020-10-31T11:57:55Z</time>
      </trkpt>
      <trkpt lat="50.70586" lon="4.73283">
        <ele>134.396851</ele>
        <time>2020-10-31T11:58:26Z</time>
      </trkpt>
      <trkpt lat="50.70592" lon="4.73242">
        <ele>134</ele>
        <time>2020-10-31T11:59:09Z</time>
      </trkpt>
      <trkpt lat="50.70606" lon="4.73184">
        <ele>134</ele>
        <time>2020-10-31T11:59:39Z</time>
      </trkpt>
      <trkpt lat="50.70612" lon="4.73117">
        <ele>132.999405</ele>
        <time>2020-10-31T12:00:10Z</time>
      </trkpt>
      <trkpt lat="50.70618" lon="4.7305">
        <ele>131.447159</ele>
        <time>2020-10-31T12:00:40Z</time>
      </trkpt>
      <trkpt lat="50.70622" lon="4.72986">
        <ele>129.819092</ele>
        <time>2020-10-31T12:01:10Z</time>
      </trkpt>
      <trkpt lat="50.70629" lon="4.72922">
        <ele>127.924805</ele>
        <time>2020-10-31T12:01:41Z</time>
      </trkpt>
      <trkpt lat="50.70635" lon="4.72862">
        <ele>126.851501</ele>
        <time>2020-10-31T12:02:11Z</time>
      </trkpt>
      <trkpt lat="50.7064" lon="4.72795">
        <ele>125.829712</ele>
        <time>2020-10-31T12:02:42Z</time>
      </trkpt>
      <trkpt lat="50.70649" lon="4.72736">
        <ele>124.809586</ele>
        <time>2020-10-31T12:03:12Z</time>
      </trkpt>
      <trkpt lat="50.70656" lon="4.72672">
        <ele>124.400665</ele>
        <time>2020-10-31T12:03:42Z</time>
      </trkpt>
      <trkpt lat="50.70668" lon="4.726">
        <ele>123.179688</ele>
        <time>2020-10-31T12:04:13Z</time>
      </trkpt>
      <trkpt lat="50.70676" lon="4.72541">
        <ele>122.734535</ele>
        <time>2020-10-31T12:04:43Z</time>
      </trkpt>
      <trkpt lat="50.70679" lon="4.72478">
        <ele>122.280762</ele>
        <time>2020-10-31T12:05:13Z</time>
      </trkpt>
      <trkpt lat="50.70681" lon="4.72411">
        <ele>121.420067</ele>
        <time>2020-10-31T12:05:44Z</time>
      </trkpt>
      <trkpt lat="50.70683" lon="4.72344">
        <ele>120.724586</ele>
        <time>2020-10-31T12:06:15Z</time>
      </trkpt>
      <trkpt lat="50.70681" lon="4.72281">
        <ele>120.538757</ele>
        <time>2020-10-31T12:06:45Z</time>
      </trkpt>
      <trkpt lat="50.70686" lon="4.7222">
        <ele>120.295227</ele>
        <time>2020-10-31T12:07:16Z</time>
      </trkpt>
      <trkpt lat="50.70685" lon="4.72153">
        <ele>120.180969</ele>
        <time>2020-10-31T12:07:47Z</time>
      </trkpt>
      <trkpt lat="50.7069" lon="4.72107">
        <ele>119.427429</ele>
        <time>2020-10-31T12:08:17Z</time>
      </trkpt>
      <trkpt lat="50.70713" lon="4.72048">
        <ele>118.155403</ele>
        <time>2020-10-31T12:08:48Z</time>
      </trkpt>
      <trkpt lat="50.70738" lon="4.71996">
        <ele>117.41217</ele>
        <time>2020-10-31T12:09:18Z</time>
      </trkpt>
      <trkpt lat="50.70756" lon="4.7194">
        <ele>119.002258</ele>
        <time>2020-10-31T12:09:49Z</time>
      </trkpt>
      <trkpt lat="50.70769" lon="4.71905">
        <ele>119.843628</ele>
        <time>2020-10-31T12:10:51Z</time>
      </trkpt>
      <trkpt lat="50.70785" lon="4.7186">
        <ele>120.520996</ele>
        <time>2020-10-31T12:11:22Z</time>
      </trkpt>
      <trkpt lat="50.70754" lon="4.71855">
        <ele>121.394775</ele>
        <time>2020-10-31T12:11:52Z</time>
      </trkpt>
      <trkpt lat="50.70734" lon="4.71826">
        <ele>122.306183</ele>
        <time>2020-10-31T12:12:24Z</time>
      </trkpt>
      <trkpt lat="50.70745" lon="4.7177">
        <ele>123.408585</ele>
        <time>2020-10-31T12:12:54Z</time>
      </trkpt>
      <trkpt lat="50.70749" lon="4.71709">
        <ele>124.453957</ele>
        <time>2020-10-31T12:13:25Z</time>
      </trkpt>
      <trkpt lat="50.70748" lon="4.71657">
        <ele>124.614975</ele>
        <time>2020-10-31T12:14:18Z</time>
      </trkpt>
      <trkpt lat="50.70747" lon="4.71592">
        <ele>122.958275</ele>
        <time>2020-10-31T12:14:49Z</time>
      </trkpt>
      <trkpt lat="50.70751" lon="4.7155">
        <ele>122.23381</ele>
        <time>2020-10-31T12:15:49Z</time>
      </trkpt>
      <trkpt lat="50.70759" lon="4.7151">
        <ele>121.842094</ele>
        <time>2020-10-31T12:16:44Z</time>
      </trkpt>
      <trkpt lat="50.70763" lon="4.71452">
        <ele>121.186028</ele>
        <time>2020-10-31T12:17:15Z</time>
      </trkpt>
      <trkpt lat="50.70762" lon="4.71406">
        <ele>120.383148</ele>
        <time>2020-10-31T12:17:46Z</time>
      </trkpt>
      <trkpt lat="50.70762" lon="4.71346">
        <ele>119.478706</ele>
        <time>2020-10-31T12:18:17Z</time>
      </trkpt>
      <trkpt lat="50.70757" lon="4.71305">
        <ele>117.0979</ele>
        <time>2020-10-31T12:19:16Z</time>
      </trkpt>
      <trkpt lat="50.70752" lon="4.71264">
        <ele>114.057861</ele>
        <time>2020-10-31T12:19:47Z</time>
      </trkpt>
      <trkpt lat="50.70752" lon="4.71223">
        <ele>111.412758</ele>
        <time>2020-10-31T12:20:41Z</time>
      </trkpt>
      <trkpt lat="50.70744" lon="4.71184">
        <ele>108.338638</ele>
        <time>2020-10-31T12:21:39Z</time>
      </trkpt>
      <trkpt lat="50.70737" lon="4.71128">
        <ele>103.623901</ele>
        <time>2020-10-31T12:22:09Z</time>
      </trkpt>
      <trkpt lat="50.70744" lon="4.71089">
        <ele>101.633789</ele>
        <time>2020-10-31T12:24:01Z</time>
      </trkpt>
      <trkpt lat="50.7074" lon="4.7104">
        <ele>98.226501</ele>
        <time>2020-10-31T12:24:31Z</time>
      </trkpt>
      <trkpt lat="50.70727" lon="4.71003">
        <ele>94.49054</ele>
        <time>2020-10-31T12:25:10Z</time>
      </trkpt>
      <trkpt lat="50.70732" lon="4.70963">
        <ele>92.967026</ele>
        <time>2020-10-31T12:25:40Z</time>
      </trkpt>
      <trkpt lat="50.70725" lon="4.70921">
        <ele>89.930283</ele>
        <time>2020-10-31T12:26:12Z</time>
      </trkpt>
      <trkpt lat="50.7073" lon="4.70873">
        <ele>88.648483</ele>
        <time>2020-10-31T12:26:43Z</time>
      </trkpt>
      <trkpt lat="50.70734" lon="4.70807">
        <ele>86.4739</ele>
        <time>2020-10-31T12:27:14Z</time>
      </trkpt>
      <trkpt lat="50.70713" lon="4.70756">
        <ele>82.532715</ele>
        <time>2020-10-31T12:27:44Z</time>
      </trkpt>
      <trkpt lat="50.70695" lon="4.7072">
        <ele>80.425987</ele>
        <time>2020-10-31T12:28:15Z</time>
      </trkpt>
      <trkpt lat="50.70673" lon="4.70696">
        <ele>79.210396</ele>
        <time>2020-10-31T12:28:46Z</time>
      </trkpt>
      <trkpt lat="50.70645" lon="4.70647">
        <ele>81.901375</ele>
        <time>2020-10-31T12:29:17Z</time>
      </trkpt>
      <trkpt lat="50.70621" lon="4.70611">
        <ele>85.419899</ele>
        <time>2020-10-31T12:29:47Z</time>
      </trkpt>
      <trkpt lat="50.70613" lon="4.7057">
        <ele>86.674316</ele>
        <time>2020-10-31T12:30:29Z</time>
      </trkpt>
      <trkpt lat="50.70595" lon="4.7054">
        <ele>89.260498</ele>
        <time>2020-10-31T12:31:35Z</time>
      </trkpt>
      <trkpt lat="50.70569" lon="4.70504">
        <ele>93.638268</ele>
        <time>2020-10-31T12:32:05Z</time>
      </trkpt>
      <trkpt lat="50.70543" lon="4.70468">
        <ele>98.305824</ele>
        <time>2020-10-31T12:32:36Z</time>
      </trkpt>
      <trkpt lat="50.70512" lon="4.7045">
        <ele>103.064575</ele>
        <time>2020-10-31T12:33:06Z</time>
      </trkpt>
      <trkpt lat="50.70474" lon="4.70434">
        <ele>105.942024</ele>
        <time>2020-10-31T12:33:37Z</time>
      </trkpt>
      <trkpt lat="50.70439" lon="4.70407">
        <ele>107.519302</ele>
        <time>2020-10-31T12:34:08Z</time>
      </trkpt>
      <trkpt lat="50.70412" lon="4.70367">
        <ele>109.007324</ele>
        <time>2020-10-31T12:34:38Z</time>
      </trkpt>
      <trkpt lat="50.70386" lon="4.70326">
        <ele>112.088242</ele>
        <time>2020-10-31T12:35:08Z</time>
      </trkpt>
      <trkpt lat="50.70365" lon="4.70282">
        <ele>115.077988</ele>
        <time>2020-10-31T12:35:39Z</time>
      </trkpt>
      <trkpt lat="50.70334" lon="4.70237">
        <ele>118.921265</ele>
        <time>2020-10-31T12:36:10Z</time>
      </trkpt>
      <trkpt lat="50.70307" lon="4.70204">
        <ele>121.047058</ele>
        <time>2020-10-31T12:36:40Z</time>
      </trkpt>
      <trkpt lat="50.7029" lon="4.70172">
        <ele>122.180252</ele>
        <time>2020-10-31T12:37:54Z</time>
      </trkpt>
      <trkpt lat="50.70265" lon="4.70133">
        <ele>123.416199</ele>
        <time>2020-10-31T12:38:25Z</time>
      </trkpt>
      <trkpt lat="50.70247" lon="4.70102">
        <ele>123.303505</ele>
        <time>2020-10-31T12:39:05Z</time>
      </trkpt>
      <trkpt lat="50.70227" lon="4.70061">
        <ele>121.101379</ele>
        <time>2020-10-31T12:39:35Z</time>
      </trkpt>
      <trkpt lat="50.70197" lon="4.70016">
        <ele>118.204163</ele>
        <time>2020-10-31T12:40:06Z</time>
      </trkpt>
      <trkpt lat="50.70169" lon="4.69977">
        <ele>115.291725</ele>
        <time>2020-10-31T12:40:37Z</time>
      </trkpt>
      <trkpt lat="50.70143" lon="4.69931">
        <ele>111.024132</ele>
        <time>2020-10-31T12:41:08Z</time>
      </trkpt>
      <trkpt lat="50.70117" lon="4.69891">
        <ele>106.810555</ele>
        <time>2020-10-31T12:41:38Z</time>
      </trkpt>
      <trkpt lat="50.70086" lon="4.69853">
        <ele>101.985191</ele>
        <time>2020-10-31T12:42:09Z</time>
      </trkpt>
      <trkpt lat="50.70075" lon="4.69814">
        <ele>99.760399</ele>
        <time>2020-10-31T12:42:39Z</time>
      </trkpt>
      <trkpt lat="50.70095" lon="4.69754">
        <ele>100.088264</ele>
        <time>2020-10-31T12:43:10Z</time>
      </trkpt>
      <trkpt lat="50.70106" lon="4.69692">
        <ele>100.434677</ele>
        <time>2020-10-31T12:43:41Z</time>
      </trkpt>
      <trkpt lat="50.70088" lon="4.69622">
        <ele>94.829102</ele>
        <time>2020-10-31T12:44:11Z</time>
      </trkpt>
      <trkpt lat="50.70062" lon="4.69569">
        <ele>90.61731</ele>
        <time>2020-10-31T12:44:41Z</time>
      </trkpt>
      <trkpt lat="50.70048" lon="4.6951">
        <ele>87.853271</ele>
        <time>2020-10-31T12:45:12Z</time>
      </trkpt>
      <trkpt lat="50.70067" lon="4.69461">
        <ele>86.618454</ele>
        <time>2020-10-31T12:45:43Z</time>
      </trkpt>
      <trkpt lat="50.70095" lon="4.69419">
        <ele>85.814819</ele>
        <time>2020-10-31T12:46:14Z</time>
      </trkpt>
      <trkpt lat="50.70126" lon="4.69374">
        <ele>84.475838</ele>
        <time>2020-10-31T12:46:45Z</time>
      </trkpt>
      <trkpt lat="50.70159" lon="4.69328">
        <ele>80.379051</ele>
        <time>2020-10-31T12:47:16Z</time>
      </trkpt>
      <trkpt lat="50.70188" lon="4.69282">
        <ele>77.181984</ele>
        <time>2020-10-31T12:47:47Z</time>
      </trkpt>
      <trkpt lat="50.70209" lon="4.69224">
        <ele>74.422211</ele>
        <time>2020-10-31T12:48:18Z</time>
      </trkpt>
      <trkpt lat="50.70202" lon="4.69166">
        <ele>71.725266</ele>
        <time>2020-10-31T12:48:49Z</time>
      </trkpt>
      <trkpt lat="50.70171" lon="4.69154">
        <ele>70.483955</ele>
        <time>2020-10-31T12:49:20Z</time>
      </trkpt>
      <trkpt lat="50.70146" lon="4.69142">
        <ele>70.840576</ele>
        <time>2020-10-31T12:49:52Z</time>
      </trkpt>
      <trkpt lat="50.70116" lon="4.69121">
        <ele>71.710815</ele>
        <time>2020-10-31T12:50:23Z</time>
      </trkpt>
      <trkpt lat="50.70089" lon="4.69126">
        <ele>71.899048</ele>
        <time>2020-10-31T12:52:14Z</time>
      </trkpt>
      <trkpt lat="50.70056" lon="4.69127">
        <ele>72.481125</ele>
        <time>2020-10-31T12:52:44Z</time>
      </trkpt>
      <trkpt lat="50.70036" lon="4.69086">
        <ele>72.991386</ele>
        <time>2020-10-31T12:53:14Z</time>
      </trkpt>
      <trkpt lat="50.70003" lon="4.69076">
        <ele>73.003555</ele>
        <time>2020-10-31T12:53:45Z</time>
      </trkpt>
      <trkpt lat="50.69962" lon="4.69091">
        <ele>72.628357</ele>
        <time>2020-10-31T12:54:16Z</time>
      </trkpt>
      <trkpt lat="50.69927" lon="4.69085">
        <ele>72.140503</ele>
        <time>2020-10-31T12:54:47Z</time>
      </trkpt>
      <trkpt lat="50.69893" lon="4.69077">
        <ele>72.211609</ele>
        <time>2020-10-31T12:55:18Z</time>
      </trkpt>
      <trkpt lat="50.69866" lon="4.69065">
        <ele>72.380005</ele>
        <time>2020-10-31T12:55:49Z</time>
      </trkpt>
      <trkpt lat="50.69835" lon="4.69057">
        <ele>72.666077</ele>
        <time>2020-10-31T12:56:20Z</time>
      </trkpt>
      <trkpt lat="50.69789" lon="4.69036">
        <ele>73.934875</ele>
        <time>2020-10-31T12:56:50Z</time>
      </trkpt>
      <trkpt lat="50.69759" lon="4.69021">
        <ele>74.506035</ele>
        <time>2020-10-31T12:57:20Z</time>
      </trkpt>
      <trkpt lat="50.69717" lon="4.69011">
        <ele>75.563957</ele>
        <time>2020-10-31T12:57:50Z</time>
      </trkpt>
      <trkpt lat="50.69691" lon="4.69003">
        <ele>75.716324</ele>
        <time>2020-10-31T12:58:28Z</time>
      </trkpt>
      <trkpt lat="50.69657" lon="4.68995">
        <ele>76.045265</ele>
        <time>2020-10-31T12:58:59Z</time>
      </trkpt>
      <trkpt lat="50.6963" lon="4.69006">
        <ele>77.188866</ele>
        <time>2020-10-31T12:59:37Z</time>
      </trkpt>
      <trkpt lat="50.69601" lon="4.69007">
        <ele>77.694611</ele>
        <time>2020-10-31T13:00:07Z</time>
      </trkpt>
      <trkpt lat="50.69563" lon="4.68993">
        <ele>76.150993</ele>
        <time>2020-10-31T13:00:38Z</time>
      </trkpt>
      <trkpt lat="50.69525" lon="4.68979">
        <ele>74.735573</ele>
        <time>2020-10-31T13:01:08Z</time>
      </trkpt>
      <trkpt lat="50.69491" lon="4.68971">
        <ele>73.96389</ele>
        <time>2020-10-31T13:01:39Z</time>
      </trkpt>
      <trkpt lat="50.69455" lon="4.68961">
        <ele>73.745956</ele>
        <time>2020-10-31T13:02:10Z</time>
      </trkpt>
      <trkpt lat="50.69428" lon="4.68972">
        <ele>73.710587</ele>
        <time>2020-10-31T13:02:52Z</time>
      </trkpt>
      <trkpt lat="50.69405" lon="4.69013">
        <ele>76.283989</ele>
        <time>2020-10-31T13:03:22Z</time>
      </trkpt>
      <trkpt lat="50.6937" lon="4.69038">
        <ele>81.044655</ele>
        <time>2020-10-31T13:03:53Z</time>
      </trkpt>
      <trkpt lat="50.69333" lon="4.69048">
        <ele>84.162903</ele>
        <time>2020-10-31T13:04:23Z</time>
      </trkpt>
      <trkpt lat="50.69287" lon="4.69059">
        <ele>84.249512</ele>
        <time>2020-10-31T13:04:54Z</time>
      </trkpt>
      <trkpt lat="50.69247" lon="4.69065">
        <ele>84.089325</ele>
        <time>2020-10-31T13:05:25Z</time>
      </trkpt>
      <trkpt lat="50.69209" lon="4.69078">
        <ele>86.45462</ele>
        <time>2020-10-31T13:05:56Z</time>
      </trkpt>
      <trkpt lat="50.69168" lon="4.69072">
        <ele>87.03624</ele>
        <time>2020-10-31T13:06:31Z</time>
      </trkpt>
      <trkpt lat="50.6914" lon="4.69065">
        <ele>85.666756</ele>
        <time>2020-10-31T13:07:06Z</time>
      </trkpt>
      <trkpt lat="50.691" lon="4.6906">
        <ele>84.302933</ele>
        <time>2020-10-31T13:07:37Z</time>
      </trkpt>
      <trkpt lat="50.69061" lon="4.6906">
        <ele>82.617683</ele>
        <time>2020-10-31T13:08:08Z</time>
      </trkpt>
      <trkpt lat="50.69023" lon="4.69093">
        <ele>81.804016</ele>
        <time>2020-10-31T13:08:38Z</time>
      </trkpt>
      <trkpt lat="50.68991" lon="4.69133">
        <ele>81.450836</ele>
        <time>2020-10-31T13:09:09Z</time>
      </trkpt>
      <trkpt lat="50.68966" lon="4.69173">
        <ele>81.642624</ele>
        <time>2020-10-31T13:09:40Z</time>
      </trkpt>
      <trkpt lat="50.6895" lon="4.69207">
        <ele>82.465523</ele>
        <time>2020-10-31T13:10:55Z</time>
      </trkpt>
      <trkpt lat="50.6893" lon="4.69252">
        <ele>83.032066</ele>
        <time>2020-10-31T13:11:26Z</time>
      </trkpt>
      <trkpt lat="50.68909" lon="4.69294">
        <ele>83.711349</ele>
        <time>2020-10-31T13:11:56Z</time>
      </trkpt>
      <trkpt lat="50.68888" lon="4.69335">
        <ele>84.297806</ele>
        <time>2020-10-31T13:12:27Z</time>
      </trkpt>
      <trkpt lat="50.6887" lon="4.69298">
        <ele>81.975136</ele>
        <time>2020-10-31T13:12:57Z</time>
      </trkpt>
      <trkpt lat="50.68849" lon="4.69257">
        <ele>79.774399</ele>
        <time>2020-10-31T13:13:36Z</time>
      </trkpt>
      <trkpt lat="50.68815" lon="4.69235">
        <ele>78.825195</ele>
        <time>2020-10-31T13:14:06Z</time>
      </trkpt>
      <trkpt lat="50.68799" lon="4.69269">
        <ele>79.36776</ele>
        <time>2020-10-31T13:16:00Z</time>
      </trkpt>
      <trkpt lat="50.68775" lon="4.69305">
        <ele>79.852196</ele>
        <time>2020-10-31T13:16:31Z</time>
      </trkpt>
      <trkpt lat="50.68759" lon="4.69339">
        <ele>80.196762</ele>
        <time>2020-10-31T13:17:01Z</time>
      </trkpt>
      <trkpt lat="50.68736" lon="4.69388">
        <ele>80.658508</ele>
        <time>2020-10-31T13:17:32Z</time>
      </trkpt>
      <trkpt lat="50.68708" lon="4.69416">
        <ele>80.987549</ele>
        <time>2020-10-31T13:18:02Z</time>
      </trkpt>
      <trkpt lat="50.68697" lon="4.69462">
        <ele>81.739143</ele>
        <time>2020-10-31T13:18:33Z</time>
      </trkpt>
      <trkpt lat="50.68664" lon="4.69485">
        <ele>81.962097</ele>
        <time>2020-10-31T13:19:04Z</time>
      </trkpt>
      <trkpt lat="50.68644" lon="4.69458">
        <ele>82.584656</ele>
        <time>2020-10-31T13:20:32Z</time>
      </trkpt>
      <trkpt lat="50.68636" lon="4.69409">
        <ele>82.391541</ele>
        <time>2020-10-31T13:21:02Z</time>
      </trkpt>
      <trkpt lat="50.68612" lon="4.69433">
        <ele>83.818909</ele>
        <time>2020-10-31T13:21:49Z</time>
      </trkpt>
      <trkpt lat="50.6859" lon="4.69475">
        <ele>85.369568</ele>
        <time>2020-10-31T13:22:20Z</time>
      </trkpt>
      <trkpt lat="50.68571" lon="4.69503">
        <ele>86.098351</ele>
        <time>2020-10-31T13:22:54Z</time>
      </trkpt>
      <trkpt lat="50.68532" lon="4.69514">
        <ele>86.193413</ele>
        <time>2020-10-31T13:23:25Z</time>
      </trkpt>
      <trkpt lat="50.68505" lon="4.69518">
        <ele>86.03643</ele>
        <time>2020-10-31T13:23:55Z</time>
      </trkpt>
      <trkpt lat="50.68479" lon="4.69526">
        <ele>86</ele>
        <time>2020-10-31T13:24:30Z</time>
      </trkpt>
      <trkpt lat="50.68449" lon="4.6954">
        <ele>86</ele>
        <time>2020-10-31T13:25:00Z</time>
      </trkpt>
      <trkpt lat="50.68417" lon="4.69569">
        <ele>86.002007</ele>
        <time>2020-10-31T13:25:32Z</time>
      </trkpt>
      <trkpt lat="50.68409" lon="4.6961">
        <ele>86.114883</ele>
        <time>2020-10-31T13:26:04Z</time>
      </trkpt>
      <trkpt lat="50.68402" lon="4.69666">
        <ele>86.362595</ele>
        <time>2020-10-31T13:26:34Z</time>
      </trkpt>
      <trkpt lat="50.68408" lon="4.69717">
        <ele>86.145622</ele>
        <time>2020-10-31T13:27:05Z</time>
      </trkpt>
      <trkpt lat="50.68427" lon="4.69747">
        <ele>86.118591</ele>
        <time>2020-10-31T13:27:40Z</time>
      </trkpt>
      <trkpt lat="50.68463" lon="4.69747">
        <ele>86.560425</ele>
        <time>2020-10-31T13:28:11Z</time>
      </trkpt>
      <trkpt lat="50.68503" lon="4.69735">
        <ele>87.100746</ele>
        <time>2020-10-31T13:28:41Z</time>
      </trkpt>
      <trkpt lat="50.68545" lon="4.69727">
        <ele>88.518921</ele>
        <time>2020-10-31T13:29:12Z</time>
      </trkpt>
      <trkpt lat="50.68584" lon="4.69705">
        <ele>90.625885</ele>
        <time>2020-10-31T13:29:42Z</time>
      </trkpt>
      <trkpt lat="50.68607" lon="4.69683">
        <ele>90.551804</ele>
        <time>2020-10-31T13:30:15Z</time>
      </trkpt>
      <trkpt lat="50.68631" lon="4.69707">
        <ele>89.652748</ele>
        <time>2020-10-31T13:30:45Z</time>
      </trkpt>
      <trkpt lat="50.68641" lon="4.6977">
        <ele>89.800972</ele>
        <time>2020-10-31T13:31:16Z</time>
      </trkpt>
      <trkpt lat="50.68653" lon="4.69823">
        <ele>90.833488</ele>
        <time>2020-10-31T13:31:46Z</time>
      </trkpt>
      <trkpt lat="50.68655" lon="4.69879">
        <ele>90.712662</ele>
        <time>2020-10-31T13:32:16Z</time>
      </trkpt>
      <trkpt lat="50.68656" lon="4.69947">
        <ele>90.021362</ele>
        <time>2020-10-31T13:32:47Z</time>
      </trkpt>
      <trkpt lat="50.68658" lon="4.7001">
        <ele>89.723564</ele>
        <time>2020-10-31T13:33:18Z</time>
      </trkpt>
      <trkpt lat="50.68683" lon="4.70045">
        <ele>93.054443</ele>
        <time>2020-10-31T13:33:52Z</time>
      </trkpt>
    </trkseg>
  </trk>
</gpx>